createdAt,value
2024-02-22T00:01:14.665Z,100147.53
2024-02-22T00:03:42.572Z,100144.97
2024-02-22T00:06:10.988Z,100147.59
2024-02-22T00:08:40.333Z,100143.50
2024-02-22T00:11:10.038Z,100138.94
2024-02-22T00:13:38.341Z,100132.19
2024-02-22T00:16:09.741Z,100125.19
2024-02-22T00:18:38.220Z,100121.69
2024-02-22T00:21:07.070Z,100116.59
2024-02-22T00:23:35.537Z,100104.56
2024-02-22T00:26:03.983Z,100106.13
2024-02-22T00:28:33.616Z,100103.28
2024-02-22T00:31:02.659Z,100100.09
2024-02-22T00:33:31.219Z,100093.03
2024-02-22T00:35:59.311Z,100082.84
2024-02-22T00:38:27.660Z,100080.28
2024-02-22T00:40:55.986Z,100073.38
2024-02-22T00:43:23.839Z,100060.53
2024-02-22T00:45:53.215Z,100051.84
2024-02-22T00:48:21.470Z,100041.69
2024-02-22T00:50:50.116Z,100039.72
2024-02-22T00:53:18.531Z,100035.66
2024-02-22T00:55:46.924Z,100027.00
2024-02-22T00:58:14.992Z,100029.50
2024-02-22T01:00:45.412Z,100017.25
2024-02-22T01:03:15.919Z,100014.28
2024-02-22T01:05:44.149Z,100005.88
2024-02-22T01:08:12.199Z,100006.84
2024-02-22T01:10:40.102Z,99994.81
2024-02-22T01:13:08.041Z,99989.56
2024-02-22T01:15:37.444Z,99989.03
2024-02-22T01:18:06.448Z,99972.50
2024-02-22T01:20:36.245Z,99975.09
2024-02-22T01:23:07.830Z,99966.44
2024-02-22T01:25:36.074Z,99958.66
2024-02-22T01:28:04.741Z,99951.06
2024-02-22T01:30:35.104Z,99954.25
2024-02-22T01:33:03.701Z,99943.00
2024-02-22T01:35:32.230Z,99938.69
2024-02-22T01:38:02.157Z,99929.22
2024-02-22T01:40:31.847Z,99920.84
2024-02-22T01:43:00.841Z,99924.28
2024-02-22T01:45:29.408Z,99918.00
2024-02-22T01:47:58.038Z,99900.00
2024-02-22T01:50:26.576Z,99901.03
2024-02-22T01:52:55.127Z,99892.38
2024-02-22T01:55:26.053Z,99884.47
2024-02-22T01:57:55.185Z,99880.88
2024-02-22T02:00:25.000Z,99880.03
2024-02-22T02:02:53.704Z,99870.72
2024-02-22T02:05:22.314Z,99869.09
2024-02-22T02:07:51.153Z,99858.44
2024-02-22T02:10:19.738Z,99856.09
2024-02-22T02:12:50.078Z,99861.19
2024-02-22T02:15:18.394Z,99860.13
2024-02-22T02:17:46.565Z,99855.25
2024-02-22T02:20:15.792Z,99847.38
2024-02-22T02:23:10.377Z,99836.09
2024-02-22T02:25:40.699Z,99837.03
2024-02-22T02:28:09.007Z,99819.75
2024-02-22T02:30:38.016Z,99824.81
2024-02-22T02:33:07.170Z,99818.81
2024-02-22T02:35:39.193Z,99819.78
2024-02-22T02:38:11.664Z,99814.44
2024-02-22T02:40:41.891Z,99809.41
2024-02-22T02:43:10.500Z,99802.47
2024-02-22T02:45:39.102Z,99794.06
2024-02-22T02:48:08.261Z,99795.69
2024-02-22T02:50:36.346Z,99790.38
2024-02-22T02:53:07.724Z,99792.25
2024-02-22T02:55:36.825Z,99788.66
2024-02-22T02:58:09.685Z,99778.50
2024-02-22T03:00:38.033Z,99777.56
2024-02-22T03:03:06.483Z,99785.41
2024-02-22T03:05:35.130Z,99781.13
2024-02-22T03:08:03.724Z,99767.09
2024-02-22T03:10:32.112Z,99778.47
2024-02-22T03:13:03.714Z,99773.34
2024-02-22T03:15:37.073Z,99768.13
2024-02-22T03:18:07.443Z,99758.69
2024-02-22T03:20:36.899Z,99755.22
2024-02-22T03:23:05.224Z,99751.78
2024-02-22T03:25:34.082Z,99745.91
2024-02-22T03:28:02.048Z,99739.97
2024-02-22T03:30:30.084Z,99736.56
2024-02-22T03:33:00.109Z,99737.75
2024-02-22T03:35:28.554Z,99731.53
2024-02-22T03:37:57.207Z,99728.91
2024-02-22T03:40:25.976Z,99721.25
2024-02-22T03:42:54.056Z,99723.78
2024-02-22T03:45:23.075Z,99730.03
2024-02-22T03:47:51.816Z,99722.91
2024-02-22T03:50:23.062Z,99714.59
2024-02-22T03:52:51.719Z,99719.94
2024-02-22T03:55:19.738Z,99715.44
2024-02-22T03:57:47.868Z,99706.19
2024-02-22T04:00:17.809Z,99709.63
2024-02-22T04:02:49.896Z,99705.34
2024-02-22T04:05:18.545Z,99704.56
2024-02-22T04:07:50.656Z,99701.81
2024-02-22T04:10:19.156Z,99705.28
2024-02-22T04:12:47.078Z,99701.84
2024-02-22T04:15:15.258Z,99690.63
2024-02-22T04:17:45.278Z,99684.75
2024-02-22T04:20:14.891Z,99686.59
2024-02-22T04:22:51.574Z,99683.00
2024-02-22T04:25:21.653Z,99677.81
2024-02-22T04:27:50.017Z,99682.03
2024-02-22T04:30:18.425Z,99674.53
2024-02-22T04:32:48.210Z,99665.75
2024-02-22T04:35:16.812Z,99666.41
2024-02-22T04:37:46.476Z,99672.66
2024-02-22T04:40:18.594Z,99665.88
2024-02-22T04:42:46.485Z,99673.53
2024-02-22T04:45:15.164Z,99655.44
2024-02-22T04:47:43.285Z,99660.13
2024-02-22T04:50:12.317Z,99653.31
2024-02-22T04:52:41.211Z,99653.41
2024-02-22T04:55:10.381Z,99643.84
2024-02-22T04:57:40.041Z,99637.66
2024-02-22T05:00:11.973Z,99641.97
2024-02-22T05:02:41.768Z,99630.06
2024-02-22T05:05:12.015Z,99622.09
2024-02-22T05:07:40.791Z,99623.91
2024-02-22T05:10:09.735Z,99615.56
2024-02-22T05:12:39.639Z,99613.16
2024-02-22T05:15:11.652Z,99615.50
2024-02-22T05:17:40.635Z,99607.16
2024-02-22T05:20:12.058Z,99606.00
2024-02-22T05:22:40.273Z,99603.28
2024-02-22T05:25:10.612Z,99597.13
2024-02-22T05:27:42.956Z,99594.63
2024-02-22T05:30:12.119Z,99593.03
2024-02-22T05:32:40.400Z,99595.81
2024-02-22T05:35:12.213Z,99585.50
2024-02-22T05:37:40.766Z,99587.00
2024-02-22T05:40:10.357Z,99588.59
2024-02-22T05:42:38.462Z,99588.59
2024-02-22T05:45:09.755Z,99579.91
2024-02-22T05:47:38.043Z,99579.22
2024-02-22T05:50:06.973Z,99564.69
2024-02-22T05:52:36.406Z,99562.72
2024-02-22T05:55:05.060Z,99564.34
2024-02-22T05:57:33.788Z,99557.31
2024-02-22T06:00:02.281Z,99551.50
2024-02-22T06:02:51.973Z,99555.13
2024-02-22T06:05:27.764Z,99550.75
2024-02-22T06:07:56.029Z,99547.47
2024-02-22T06:10:24.620Z,99547.34
2024-02-22T06:12:57.049Z,99551.44
2024-02-22T06:15:28.562Z,99545.22
2024-02-22T06:18:11.953Z,99536.16
2024-02-22T06:20:49.382Z,99533.66
2024-02-22T06:23:17.551Z,99538.66
2024-02-22T06:25:46.122Z,99536.16
2024-02-22T06:28:15.053Z,99528.97
2024-02-22T06:30:43.387Z,99529.81
2024-02-22T06:33:14.021Z,99527.38
2024-02-22T06:35:42.796Z,99526.66
2024-02-22T06:38:11.509Z,99525.59
2024-02-22T06:40:50.195Z,99523.16
2024-02-22T06:43:20.461Z,99521.31
2024-02-22T06:45:49.395Z,99507.34
2024-02-22T06:48:19.496Z,99508.38
2024-02-22T06:50:48.434Z,99506.63
2024-02-22T06:53:18.983Z,99500.56
2024-02-22T06:55:47.655Z,99506.63
2024-02-22T06:58:16.899Z,99495.56
2024-02-22T07:00:45.204Z,99497.13
2024-02-22T07:03:13.617Z,99499.88
2024-02-22T07:05:44.755Z,99487.78
2024-02-22T07:08:13.100Z,99488.69
2024-02-22T07:10:41.474Z,99493.13
2024-02-22T07:13:09.929Z,99480.59
2024-02-22T07:15:38.136Z,99491.94
2024-02-22T07:18:07.596Z,99481.09
2024-02-22T07:20:35.819Z,99472.09
2024-02-22T07:23:06.871Z,99466.78
2024-02-22T07:25:36.228Z,99470.41
2024-02-22T07:28:04.786Z,99466.53
2024-02-22T07:30:34.339Z,99458.81
2024-02-22T07:33:02.881Z,99458.00
2024-02-22T07:35:31.891Z,99455.63
2024-02-22T07:38:02.007Z,99459.13
2024-02-22T07:40:33.009Z,99453.69
2024-02-22T07:43:00.536Z,99455.31
2024-02-22T07:45:29.824Z,99452.59
2024-02-22T07:47:58.413Z,99450.88
2024-02-22T07:50:28.476Z,99456.19
2024-02-22T07:52:56.779Z,99452.75
2024-02-22T07:55:26.072Z,99439.53
2024-02-22T07:57:55.806Z,99433.22
2024-02-22T08:00:24.155Z,99436.66
2024-02-22T08:02:52.843Z,99435.22
2024-02-22T08:05:21.104Z,99426.69
2024-02-22T08:07:50.057Z,99428.69
2024-02-22T08:10:18.786Z,99429.44
2024-02-22T08:12:47.186Z,99424.69
2024-02-22T08:15:17.422Z,99420.53
2024-02-22T08:17:46.194Z,99420.31
2024-02-22T08:20:16.354Z,99417.31
2024-02-22T08:22:45.433Z,99413.16
2024-02-22T08:25:16.785Z,99410.59
2024-02-22T08:27:50.600Z,99404.63
2024-02-22T08:30:29.114Z,99411.22
2024-02-22T08:32:57.872Z,99401.59
2024-02-22T08:35:28.004Z,99405.88
2024-02-22T08:37:56.929Z,99402.31
2024-02-22T08:40:38.045Z,99391.06
2024-02-22T08:43:09.933Z,99397.94
2024-02-22T08:45:40.052Z,99391.19
2024-02-22T08:48:09.532Z,99386.69
2024-02-22T08:50:38.230Z,99384.59
2024-02-22T08:53:06.919Z,99382.06
2024-02-22T08:55:35.352Z,99382.00
2024-02-22T08:58:03.743Z,99371.81
2024-02-22T09:00:32.674Z,99368.22
2024-02-22T09:03:02.779Z,99374.84
2024-02-22T09:05:31.196Z,99362.09
2024-02-22T09:08:01.154Z,99370.56
2024-02-22T09:10:29.991Z,99367.03
2024-02-22T09:12:58.673Z,99359.97
2024-02-22T09:15:26.949Z,99355.00
2024-02-22T09:17:55.127Z,99348.59
2024-02-22T09:20:25.390Z,99345.06
2024-02-22T09:22:53.800Z,99346.84
2024-02-22T09:25:22.446Z,99343.75
2024-02-22T09:27:53.656Z,99345.44
2024-02-22T09:30:21.823Z,99332.09
2024-02-22T09:32:52.446Z,99337.94
2024-02-22T09:35:20.963Z,99327.88
2024-02-22T09:37:51.102Z,99331.66
2024-02-22T09:40:23.738Z,99330.63
2024-02-22T09:42:52.544Z,99323.25
2024-02-22T09:45:21.286Z,99331.09
2024-02-22T09:47:49.740Z,99324.03
2024-02-22T09:50:18.415Z,99330.81
2024-02-22T09:52:47.249Z,99323.00
2024-02-22T09:55:17.691Z,99316.06
2024-02-22T09:57:45.936Z,99323.19
2024-02-22T10:00:20.109Z,99325.94
2024-02-22T10:02:49.231Z,99319.16
2024-02-22T10:05:19.033Z,99323.25
2024-02-22T10:07:48.601Z,99319.59
2024-02-22T10:10:27.435Z,99321.34
2024-02-22T10:12:56.715Z,99315.22
2024-02-22T10:15:29.603Z,99319.50
2024-02-22T10:18:00.016Z,99312.50
2024-02-22T10:20:35.563Z,99312.56
2024-02-22T10:23:08.913Z,99307.94
2024-02-22T10:25:38.926Z,99313.34
2024-02-22T10:28:09.720Z,99315.63
2024-02-22T10:30:40.059Z,99303.25
2024-02-22T10:33:10.890Z,99309.25
2024-02-22T10:35:42.392Z,99304.84
2024-02-22T10:38:12.745Z,99298.72
2024-02-22T10:40:46.295Z,99295.09
2024-02-22T10:43:14.369Z,99295.59
2024-02-22T10:45:43.654Z,99282.97
2024-02-22T10:48:15.108Z,99293.78
2024-02-22T10:50:45.546Z,99286.63
2024-02-22T10:53:15.477Z,99282.31
2024-02-22T10:55:51.576Z,99275.31
2024-02-22T10:58:23.481Z,99270.59
2024-02-22T11:00:53.931Z,99271.28
2024-02-22T11:03:23.013Z,99262.56
2024-02-22T11:05:54.822Z,99259.81
2024-02-22T11:08:23.928Z,99250.44
2024-02-22T11:11:07.234Z,99248.50
2024-02-22T11:14:02.975Z,99238.97
2024-02-22T11:19:46.050Z,99247.00
2024-02-22T11:22:17.884Z,99235.78
2024-02-22T11:24:49.198Z,99235.56
2024-02-22T11:27:20.147Z,99231.19
2024-02-22T11:29:50.980Z,99230.00
2024-02-22T11:32:22.724Z,99224.03
2024-02-22T11:34:54.254Z,99208.75
2024-02-22T11:37:23.117Z,99198.59
2024-02-22T11:39:58.701Z,99193.66
2024-02-22T11:42:30.445Z,99182.81
2024-02-22T11:44:59.028Z,99168.84
2024-02-22T11:47:28.471Z,99164.84
2024-02-22T11:49:56.846Z,99162.94
2024-02-22T11:52:25.788Z,99144.06
2024-02-22T11:54:55.350Z,99129.09
2024-02-22T11:57:26.700Z,99117.44
2024-02-22T11:59:57.115Z,99115.59
2024-02-22T12:02:28.886Z,99118.50
2024-02-22T12:04:57.630Z,99115.75
2024-02-22T12:07:26.594Z,99123.38
2024-02-22T12:09:56.482Z,99115.00
2024-02-22T12:12:25.710Z,99122.78
2024-02-22T12:15:00.258Z,99112.53
2024-02-22T12:17:29.481Z,99103.75
2024-02-22T12:20:00.656Z,99102.91
2024-02-22T12:22:31.080Z,99101.84
2024-02-22T12:24:59.914Z,99097.97
2024-02-22T12:27:28.768Z,99097.78
2024-02-22T12:29:59.974Z,99093.69
2024-02-22T12:32:29.147Z,99079.00
2024-02-22T12:34:59.072Z,99073.69
2024-02-22T12:37:28.145Z,99052.38
2024-02-22T12:39:56.874Z,99054.19
2024-02-22T12:42:25.033Z,99043.56
2024-02-22T12:44:53.114Z,99046.47
2024-02-22T12:47:22.956Z,99044.16
2024-02-22T12:49:51.400Z,99036.72
2024-02-22T12:52:19.778Z,99028.16
2024-02-22T12:54:48.065Z,99031.44
2024-02-22T12:57:16.217Z,99032.03
2024-02-22T12:59:46.077Z,99029.44
2024-02-22T13:02:14.224Z,99024.88
2024-02-22T13:04:43.841Z,99010.81
2024-02-22T13:07:14.814Z,99004.94
2024-02-22T13:09:42.967Z,99006.63
2024-02-22T13:12:11.255Z,99018.94
2024-02-22T13:14:40.063Z,99009.38
2024-02-22T13:17:10.034Z,99005.16
2024-02-22T13:19:38.587Z,99003.28
2024-02-22T13:22:09.804Z,99002.75
2024-02-22T13:24:39.706Z,98997.00
2024-02-22T13:27:11.660Z,98988.16
2024-02-22T13:29:40.563Z,98982.28
2024-02-22T13:32:08.965Z,98978.47
2024-02-22T13:34:40.133Z,98975.09
2024-02-22T13:37:10.270Z,98964.53
2024-02-22T13:39:38.850Z,98965.00
2024-02-22T13:42:07.897Z,98961.56
2024-02-22T13:44:36.408Z,98950.09
2024-02-22T13:47:07.588Z,98945.72
2024-02-22T13:49:38.180Z,98943.41
2024-02-22T13:52:13.830Z,98932.28
2024-02-22T13:54:45.296Z,98923.75
2024-02-22T13:57:16.255Z,98920.63
2024-02-22T13:59:45.036Z,98920.31
2024-02-22T14:02:16.534Z,98914.72
2024-02-22T14:04:45.354Z,98905.16
2024-02-22T14:07:14.242Z,98915.22
2024-02-22T14:09:47.177Z,98911.19
2024-02-22T14:12:15.965Z,98919.16
2024-02-22T14:14:46.311Z,98902.88
2024-02-22T14:17:15.922Z,98904.75
2024-02-22T14:19:46.412Z,98902.22
2024-02-22T14:22:17.726Z,98909.53
2024-02-22T14:24:47.948Z,98909.34
2024-02-22T14:27:17.758Z,98898.94
2024-02-22T14:29:51.058Z,98897.09
2024-02-22T14:32:20.332Z,98896.34
2024-02-22T14:34:52.199Z,98894.00
2024-02-22T14:37:22.818Z,98879.84
2024-02-22T14:39:54.856Z,98885.22
2024-02-22T14:42:24.761Z,98867.19
2024-02-22T14:44:53.305Z,98874.72
2024-02-22T14:47:21.857Z,98877.09
2024-02-22T14:49:50.529Z,98886.22
2024-02-22T14:52:19.028Z,98872.22
2024-02-22T14:54:47.580Z,98870.47
2024-02-22T14:57:17.415Z,98868.47
2024-02-22T14:59:46.419Z,98867.75
2024-02-22T15:02:16.164Z,98867.59
2024-02-22T15:04:45.667Z,98856.97
2024-02-22T15:07:14.693Z,98868.19
2024-02-22T15:09:43.815Z,98859.81
2024-02-22T15:12:13.638Z,98861.72
2024-02-22T15:14:45.361Z,98861.59
2024-02-22T15:17:13.982Z,98850.28
2024-02-22T15:19:42.387Z,98835.53
2024-02-22T15:22:10.680Z,98833.25
2024-02-22T15:24:39.321Z,98824.63
2024-02-22T15:27:07.674Z,98819.25
2024-02-22T15:29:37.679Z,98812.06
2024-02-22T15:32:08.545Z,98811.66
2024-02-22T15:34:37.768Z,98811.31
2024-02-22T15:37:06.784Z,98798.41
2024-02-22T15:39:40.571Z,98784.66
2024-02-22T15:42:09.477Z,98775.88
2024-02-22T15:44:38.039Z,98770.69
2024-02-22T15:47:08.687Z,98761.59
2024-02-22T15:49:36.950Z,98767.31
2024-02-22T15:52:06.269Z,98745.88
2024-02-22T15:54:36.459Z,98739.50
2024-02-22T15:57:06.729Z,98738.97
2024-02-22T15:59:35.769Z,98736.56
2024-02-22T16:02:04.844Z,98726.19
2024-02-22T16:04:37.052Z,98728.84
2024-02-22T16:07:05.891Z,98719.06
2024-02-22T16:09:34.127Z,98716.75
2024-02-22T16:12:02.352Z,98702.81
2024-02-22T16:14:30.837Z,98702.38
2024-02-22T16:17:01.684Z,98695.97
2024-02-22T16:19:30.295Z,98683.91
2024-02-22T16:22:05.006Z,98684.66
2024-02-22T16:24:34.971Z,98672.22
2024-02-22T16:27:03.184Z,98658.72
2024-02-22T16:29:32.350Z,98654.13
2024-02-22T16:32:01.959Z,98647.13
2024-02-22T16:34:31.206Z,98642.09
2024-02-22T16:37:01.967Z,98631.69
2024-02-22T16:39:35.135Z,98635.72
2024-02-22T16:42:06.757Z,98636.75
2024-02-22T16:44:39.843Z,98639.22
2024-02-22T16:47:10.589Z,98626.34
2024-02-22T16:49:40.511Z,98619.38
2024-02-22T16:52:10.300Z,98628.78
2024-02-22T16:54:42.458Z,98623.25
2024-02-22T16:57:11.144Z,98622.34
2024-02-22T16:59:40.079Z,98615.72
2024-02-22T17:02:08.579Z,98615.06
2024-02-22T17:04:36.952Z,98606.09
2024-02-22T17:07:05.018Z,98598.31
2024-02-22T17:09:34.496Z,98582.59
2024-02-22T17:12:03.554Z,98580.31
2024-02-22T17:14:32.125Z,98576.47
2024-02-22T17:17:04.194Z,98582.09
2024-02-22T17:19:32.627Z,98587.44
2024-02-22T17:22:01.584Z,98588.75
2024-02-22T17:24:31.867Z,98580.81
2024-02-22T17:27:01.512Z,98565.94
2024-02-22T17:29:29.970Z,98546.53
2024-02-22T17:31:58.201Z,98545.59
2024-02-22T17:34:27.113Z,98546.63
2024-02-22T17:36:55.286Z,98548.13
2024-02-22T17:39:24.265Z,98541.91
2024-02-22T17:41:52.808Z,98546.75
2024-02-22T17:44:24.769Z,98538.97
2024-02-22T17:46:53.501Z,98531.03
2024-02-22T17:49:21.959Z,98528.94
2024-02-22T17:51:54.037Z,98505.44
2024-02-22T17:54:23.322Z,98504.69
2024-02-22T17:56:51.892Z,98499.69
2024-02-22T17:59:20.377Z,98491.97
2024-02-22T18:01:51.803Z,98476.25
2024-02-22T18:04:23.490Z,98482.75
2024-02-22T18:06:53.448Z,98476.56
2024-02-22T18:09:22.689Z,98473.69
2024-02-22T18:11:51.203Z,98471.19
2024-02-22T18:14:19.786Z,98453.13
2024-02-22T18:16:48.833Z,98447.34
2024-02-22T18:19:21.569Z,98431.16
2024-02-22T18:21:49.795Z,98444.59
2024-02-22T18:24:20.300Z,98450.28
2024-02-22T18:26:49.372Z,98440.34
2024-02-22T18:29:18.668Z,98422.09
2024-02-22T18:31:47.526Z,98439.72
2024-02-22T18:34:20.619Z,98416.97
2024-02-22T18:36:50.312Z,98419.88
2024-02-22T18:39:18.810Z,98401.72
2024-02-22T18:41:48.587Z,98396.97
2024-02-22T18:44:17.026Z,98397.88
2024-02-22T18:46:47.264Z,98378.28
2024-02-22T18:49:18.410Z,98361.59
2024-02-22T18:51:47.795Z,98361.25
2024-02-22T18:54:18.666Z,98361.13
2024-02-22T18:56:46.929Z,98357.44
2024-02-22T18:59:17.671Z,98364.38
2024-02-22T19:01:49.158Z,98358.97
2024-02-22T19:04:21.795Z,98350.97
2024-02-22T19:06:50.728Z,98339.13
2024-02-22T19:09:20.488Z,98338.31
2024-02-22T19:11:49.604Z,98331.25
2024-02-22T19:14:18.427Z,98328.09
2024-02-22T19:16:47.016Z,98302.91
2024-02-22T19:19:15.564Z,98304.72
2024-02-22T19:21:44.639Z,98311.59
2024-02-22T19:24:16.241Z,98298.81
2024-02-22T19:26:52.544Z,98297.63
2024-02-22T19:29:21.078Z,98287.41
2024-02-22T19:31:55.871Z,98289.91
2024-02-22T19:34:24.733Z,98283.03
2024-02-22T19:36:57.363Z,98270.63
2024-02-22T19:39:26.131Z,98267.75
2024-02-22T19:42:00.670Z,98263.75
2024-02-22T19:44:31.069Z,98268.13
2024-02-22T19:47:09.086Z,98263.63
2024-02-22T19:49:43.957Z,98259.28
2024-02-22T19:52:28.505Z,98250.66
2024-02-22T19:55:01.665Z,98254.00
2024-02-22T19:57:35.606Z,98248.66
2024-02-22T20:00:17.768Z,98253.56
2024-02-22T20:03:01.103Z,98244.06
2024-02-22T20:05:32.792Z,98232.03
2024-02-22T20:08:05.322Z,98229.41
2024-02-22T20:10:34.437Z,98213.38
2024-02-22T20:13:10.893Z,98222.53
2024-02-22T20:15:39.545Z,98205.28
2024-02-22T20:18:13.527Z,98192.22
2024-02-22T20:20:43.298Z,98190.84
2024-02-22T20:23:12.282Z,98189.50
2024-02-22T20:25:43.406Z,98181.47
2024-02-22T20:28:16.236Z,98169.94
2024-02-22T20:30:44.608Z,98159.03
2024-02-22T20:33:14.940Z,98161.22
2024-02-22T20:35:46.416Z,98155.09
2024-02-22T20:38:15.737Z,98153.00
2024-02-22T20:40:45.243Z,98156.34
2024-02-22T20:43:16.026Z,98143.66
2024-02-22T20:45:46.251Z,98135.13
2024-02-22T20:48:14.934Z,98133.19
2024-02-22T20:50:43.756Z,98128.81
2024-02-22T20:53:14.726Z,98125.09
2024-02-22T20:55:43.383Z,98110.44
2024-02-22T20:58:13.597Z,98113.53
2024-02-22T21:00:42.349Z,98104.72
2024-02-22T21:03:13.516Z,98113.66
2024-02-22T21:05:42.636Z,98099.53
2024-02-22T21:08:14.067Z,98089.16
2024-02-22T21:10:42.984Z,98086.72
2024-02-22T21:13:14.594Z,98074.94
2024-02-22T21:15:43.671Z,98068.16
2024-02-22T21:18:14.214Z,98077.31
2024-02-22T21:20:42.765Z,98076.38
2024-02-22T21:23:11.478Z,98064.72
2024-02-22T21:25:39.798Z,98061.13
2024-02-22T21:28:08.378Z,98059.66
2024-02-22T21:30:40.313Z,98050.31
2024-02-22T21:33:09.048Z,98045.03
2024-02-22T21:35:39.585Z,98042.44
2024-02-22T21:38:09.120Z,98047.19
2024-02-22T21:40:38.460Z,98048.44
2024-02-22T21:43:09.185Z,98031.94
2024-02-22T21:45:38.040Z,98024.91
2024-02-22T21:48:11.250Z,98024.25
2024-02-22T21:50:41.945Z,98013.53
2024-02-22T21:53:27.674Z,98010.34
2024-02-22T21:56:02.373Z,98011.91
2024-02-22T21:58:35.765Z,98001.63
2024-02-22T22:01:11.474Z,97998.09
2024-02-22T22:03:41.988Z,97993.31
2024-02-22T22:06:12.112Z,98005.03
2024-02-22T22:08:43.519Z,98004.72
2024-02-22T22:11:13.275Z,98001.53
2024-02-22T22:13:45.150Z,98004.13
2024-02-22T22:16:13.501Z,97999.75
2024-02-22T22:18:44.999Z,97991.31
2024-02-22T22:21:21.501Z,98004.94
2024-02-22T22:23:56.989Z,97987.88
2024-02-22T22:26:25.930Z,97993.72
2024-02-22T22:28:54.560Z,97980.94
2024-02-22T22:31:25.947Z,97970.44
2024-02-22T22:33:56.221Z,97964.31
2024-02-22T22:36:26.192Z,97968.69
2024-02-22T22:38:54.530Z,97970.88
2024-02-22T22:41:23.092Z,97957.25
2024-02-22T22:43:52.015Z,97952.56
2024-02-22T22:46:21.023Z,97953.63
2024-02-22T22:48:50.606Z,97956.31
2024-02-22T22:51:18.746Z,97945.81
2024-02-22T22:53:49.270Z,97923.91
2024-02-22T22:56:18.178Z,97934.81
2024-02-22T22:58:47.057Z,97936.38
2024-02-22T23:01:18.446Z,97936.88
2024-02-22T23:03:48.132Z,97942.16
2024-02-22T23:06:17.887Z,97925.56
2024-02-22T23:08:47.202Z,97924.63
2024-02-22T23:11:21.898Z,97907.47
2024-02-22T23:13:51.383Z,97909.34
2024-02-22T23:16:20.290Z,97911.97
2024-02-22T23:18:48.813Z,97913.16
2024-02-22T23:21:19.375Z,97909.63
2024-02-22T23:23:48.373Z,97907.13
2024-02-22T23:26:18.544Z,97884.09
2024-02-22T23:28:47.280Z,97898.41
2024-02-22T23:31:17.009Z,97898.31
2024-02-22T23:33:46.276Z,97894.34
2024-02-22T23:36:13.908Z,97896.81
2024-02-22T23:38:42.493Z,97901.19
2024-02-22T23:41:22.107Z,97884.78
2024-02-22T23:44:00.917Z,97893.09
2024-02-22T23:46:30.471Z,97894.84
2024-02-22T23:48:59.020Z,97898.66
2024-02-22T23:51:27.502Z,97863.09
2024-02-22T23:53:59.885Z,97882.13
2024-02-22T23:56:28.484Z,97880.25
2024-02-22T23:58:59.421Z,97894.69
